Time;durP1;ratioP1;P1;durP2;ratioP2;P2;SDS_P1;SDS_P2;PMS_P1;PMS_P2;Temp;Humidity;BMP_temperature;BMP_pressure;BME280_temperature;BME280_humidity;BME280_pressure;Samples;Min_cycle;Max_cycle;Signal;HPM_P1;HPM_P2
2021/10/13 00:01:36;;;;;;;13.25;10.02;;;10.00;99.90;;;;;;6163144;23;20248;-93
2021/10/13 00:04:03;;;;;;;14.07;9.60;;;9.90;99.90;;;;;;6163772;23;20166;-93
2021/10/13 00:06:31;;;;;;;12.10;9.27;;;9.90;99.90;;;;;;6164410;23;20181;-87
2021/10/13 00:08:57;;;;;;;14.70;9.27;;;9.90;99.90;;;;;;6161306;23;20170;-87
2021/10/13 00:11:23;;;;;;;13.73;9.45;;;9.90;99.90;;;;;;6164200;23;20200;-93
2021/10/13 00:13:49;;;;;;;11.70;9.02;;;9.90;99.90;;;;;;6163957;23;20622;-86
2021/10/13 00:16:16;;;;;;;13.50;9.40;;;9.90;99.90;;;;;;6169356;23;20229;-93
2021/10/13 00:18:41;;;;;;;12.10;10.02;;;9.90;99.90;;;;;;6161870;23;20154;-93
2021/10/13 00:21:20;;;;;;;12.17;9.40;;;9.80;99.90;;;;;;6161663;23;20208;-87
2021/10/13 00:23:45;;;;;;;15.77;9.35;;;9.80;99.90;;;;;;6160950;23;20164;-93
2021/10/13 00:26:15;;;;;;;14.90;10.10;;;9.80;99.90;;;;;;6160644;23;20240;-92
2021/10/13 00:28:41;;;;;;;16.90;10.02;;;9.80;99.90;;;;;;6161106;23;20499;-94
2021/10/13 00:31:08;;;;;;;13.53;9.67;;;9.70;99.90;;;;;;6160785;23;20182;-90
2021/10/13 00:33:34;;;;;;;14.07;9.82;;;9.70;99.90;;;;;;6186958;23;20317;-93
2021/10/13 00:36:01;;;;;;;14.00;10.07;;;9.70;99.90;;;;;;6161097;23;20262;-93
2021/10/13 00:38:27;;;;;;;14.10;9.77;;;9.60;99.90;;;;;;6161181;23;20531;-92
2021/10/13 00:40:54;;;;;;;16.80;10.70;;;9.70;99.90;;;;;;6160870;23;20186;-86
2021/10/13 00:43:21;;;;;;;15.02;9.35;;;9.60;99.90;;;;;;6160649;23;20661;-86
2021/10/13 00:45:49;;;;;;;15.52;9.70;;;9.60;99.90;;;;;;6160720;23;20254;-87
2021/10/13 00:48:16;;;;;;;13.10;9.57;;;9.50;99.90;;;;;;6176659;23;20166;-88
2021/10/13 00:50:42;;;;;;;16.17;10.55;;;9.50;99.90;;;;;;6160645;23;20178;-93
2021/10/13 00:53:10;;;;;;;13.93;9.70;;;9.50;99.90;;;;;;6161473;23;20167;-87
2021/10/13 00:55:37;;;;;;;12.63;9.73;;;9.50;99.90;;;;;;6161294;23;20206;-87
2021/10/13 00:58:03;;;;;;;15.23;9.98;;;9.50;99.90;;;;;;6163441;23;20158;-93
2021/10/13 01:00:31;;;;;;;14.97;10.20;;;9.40;99.90;;;;;;6162394;23;20611;-87
2021/10/13 01:03:22;;;;;;;14.50;10.88;;;9.50;99.90;;;;;;6186680;23;20411;-93
2021/10/13 01:05:59;;;;;;;14.52;10.65;;;9.50;99.90;;;;;;6161017;23;20213;-87
2021/10/13 01:08:28;;;;;;;12.18;9.30;;;9.40;99.90;;;;;;6160938;23;20178;-93
2021/10/13 01:11:03;;;;;;;13.63;9.98;;;9.40;99.90;;;;;;6160243;23;20597;-93
2021/10/13 01:13:55;;;;;;;14.18;10.27;;;9.30;99.90;;;;;;6160620;23;20198;-93
2021/10/13 01:16:49;;;;;;;15.32;9.90;;;9.30;99.90;;;;;;6159642;23;20199;-93
2021/10/13 01:19:27;;;;;;;12.93;9.73;;;9.30;99.90;;;;;;6186805;23;20193;-93
2021/10/13 01:22:19;;;;;;;17.45;10.52;;;9.20;99.90;;;;;;6160677;23;20241;-93
2021/10/13 01:25:31;;;;;;;13.75;10.32;;;9.10;99.90;;;;;;6141812;23;20183;-93
2021/10/13 01:27:58;;;;;;;14.30;9.35;;;9.10;99.90;;;;;;6177457;23;20218;-86
2021/10/13 01:30:30;;;;;;;15.27;11.20;;;9.00;99.90;;;;;;6170388;23;20194;-87
2021/10/13 01:33:01;;;;;;;17.05;11.52;;;9.00;99.90;;;;;;6161525;23;20158;-86
2021/10/13 01:35:30;;;;;;;16.75;9.93;;;8.90;99.90;;;;;;6160838;23;20213;-87
2021/10/13 01:38:02;;;;;;;14.25;9.60;;;8.90;99.90;;;;;;6187849;23;20150;-86
2021/10/13 01:40:31;;;;;;;13.50;10.07;;;8.90;99.90;;;;;;6161545;23;20562;-87
2021/10/13 01:43:01;;;;;;;19.83;10.32;;;8.80;99.90;;;;;;6161721;23;20245;-93
2021/10/13 01:45:27;;;;;;;16.23;10.93;;;8.90;99.90;;;;;;6187679;23;20181;-93
2021/10/13 01:47:54;;;;;;;15.47;10.17;;;8.80;99.90;;;;;;6164217;23;20155;-91
2021/10/13 01:50:23;;;;;;;17.48;9.80;;;8.80;99.90;;;;;;6160054;23;20560;-87
2021/10/13 01:52:50;;;;;;;20.23;11.25;;;8.80;99.90;;;;;;6187121;23;20573;-93
2021/10/13 01:55:19;;;;;;;16.75;11.30;;;8.80;99.90;;;;;;6160607;23;20206;-87
2021/10/13 01:57:51;;;;;;;15.57;11.05;;;8.80;99.90;;;;;;6160937;23;20293;-93
2021/10/13 02:00:20;;;;;;;16.50;10.32;;;8.80;99.90;;;;;;6172544;23;20194;-91
2021/10/13 02:02:50;;;;;;;17.65;10.60;;;8.80;99.90;;;;;;6163040;23;20221;-87
2021/10/13 02:05:18;;;;;;;17.17;10.35;;;8.80;99.90;;;;;;6159931;23;20188;-87
2021/10/13 02:07:46;;;;;;;18.30;12.18;;;8.80;99.90;;;;;;6160620;23;20238;-86
2021/10/13 02:10:12;;;;;;;14.07;10.63;;;8.80;99.90;;;;;;6160922;23;20517;-93
2021/10/13 02:12:45;;;;;;;15.80;11.60;;;8.80;99.90;;;;;;6155341;23;20195;-94
2021/10/13 02:15:14;;;;;;;19.17;12.40;;;8.80;99.90;;;;;;6154987;23;20207;-87
2021/10/13 02:17:44;;;;;;;17.50;11.10;;;8.80;99.90;;;;;;6155654;23;20159;-93
2021/10/13 02:20:11;;;;;;;16.08;10.68;;;8.70;99.90;;;;;;6158334;23;20621;-93
2021/10/13 02:22:40;;;;;;;18.33;11.52;;;8.80;99.90;;;;;;6158164;23;20532;-94
2021/10/13 02:25:06;;;;;;;13.30;9.57;;;8.80;99.90;;;;;;6173993;23;20190;-93
2021/10/13 02:28:12;;;;;;;14.10;10.20;;;8.70;99.90;;;;;;6159182;23;20163;-86
2021/10/13 02:30:39;;;;;;;15.98;10.57;;;8.70;99.90;;;;;;6156225;23;20411;-93
2021/10/13 02:33:05;;;;;;;17.75;10.30;;;8.70;99.90;;;;;;6159711;23;20158;-93
2021/10/13 02:35:32;;;;;;;16.98;10.10;;;8.70;99.90;;;;;;6159722;23;20252;-93
2021/10/13 02:37:58;;;;;;;14.55;10.63;;;8.60;99.90;;;;;;6157785;23;20222;-92
2021/10/13 02:40:24;;;;;;;15.47;11.03;;;8.70;99.90;;;;;;6156929;23;20191;-93
2021/10/13 02:42:52;;;;;;;15.70;10.40;;;8.60;99.90;;;;;;6158499;23;20151;-87
2021/10/13 02:45:20;;;;;;;15.60;11.02;;;8.70;99.90;;;;;;6157491;23;20269;-93
2021/10/13 02:47:56;;;;;;;17.35;10.82;;;8.60;99.90;;;;;;6157663;23;20604;-93
2021/10/13 02:50:59;;;;;;;17.52;10.35;;;8.60;99.90;;;;;;6157710;23;20576;-93
2021/10/13 02:54:00;;;;;;;18.38;10.68;;;8.50;99.90;;;;;;6143402;23;20510;-93
2021/10/13 02:56:32;;;;;;;16.13;10.88;;;8.60;99.90;;;;;;6123705;23;20177;-88
2021/10/13 02:59:16;;;;;;;17.48;10.60;;;8.50;99.90;;;;;;6157815;23;20481;-93
2021/10/13 03:01:45;;;;;;;17.00;11.32;;;8.50;99.90;;;;;;6157430;23;20158;-87
2021/10/13 03:04:27;;;;;;;17.20;11.57;;;8.50;99.90;;;;;;6157653;23;20242;-93
2021/10/13 03:07:13;;;;;;;17.50;10.82;;;8.50;99.90;;;;;;6157397;23;20487;-87
2021/10/13 03:09:45;;;;;;;13.82;9.60;;;8.50;99.90;;;;;;6157485;23;20179;-94
2021/10/13 03:12:12;;;;;;;16.40;10.85;;;8.50;99.90;;;;;;6162956;23;20270;-94
2021/10/13 03:14:40;;;;;;;19.50;11.50;;;8.50;99.90;;;;;;6164097;23;20206;-93
2021/10/13 03:17:08;;;;;;;16.42;10.80;;;8.50;99.90;;;;;;6161480;23;20612;-87
2021/10/13 03:19:36;;;;;;;18.17;10.90;;;8.40;99.90;;;;;;6165557;23;20186;-93
2021/10/13 03:22:04;;;;;;;19.52;12.00;;;8.40;99.90;;;;;;6174798;23;20138;-87
2021/10/13 03:24:30;;;;;;;14.02;10.40;;;8.30;99.90;;;;;;6168345;23;20340;-94
2021/10/13 03:26:56;;;;;;;16.00;10.73;;;8.30;99.90;;;;;;6161931;23;20241;-93
2021/10/13 03:29:22;;;;;;;17.07;11.23;;;8.30;99.90;;;;;;6161261;23;20442;-87
2021/10/13 03:31:48;;;;;;;16.25;11.15;;;8.20;99.90;;;;;;6161446;23;20190;-87
2021/10/13 03:34:16;;;;;;;16.85;11.68;;;8.20;99.90;;;;;;6160813;23;20620;-94
2021/10/13 03:36:45;;;;;;;19.17;11.30;;;8.20;99.90;;;;;;6161365;23;20157;-93
2021/10/13 03:39:12;;;;;;;13.98;11.30;;;8.20;99.90;;;;;;6161433;23;20238;-90
2021/10/13 03:41:39;;;;;;;17.75;11.18;;;8.10;99.90;;;;;;6161163;23;20562;-87
2021/10/13 03:44:06;;;;;;;19.33;11.60;;;8.10;99.90;;;;;;6161289;23;20173;-88
2021/10/13 03:46:32;;;;;;;18.30;11.82;;;8.10;99.90;;;;;;6187709;23;20217;-93
2021/10/13 03:48:58;;;;;;;16.48;11.43;;;8.10;99.90;;;;;;6190886;23;20174;-93
2021/10/13 03:51:26;;;;;;;20.63;12.23;;;8.10;99.90;;;;;;6172562;23;20170;-87
2021/10/13 03:53:52;;;;;;;20.00;10.70;;;8.00;99.90;;;;;;6188550;23;20376;-87
2021/10/13 03:56:19;;;;;;;17.77;11.38;;;8.00;99.90;;;;;;6162885;23;20202;-87
2021/10/13 03:58:46;;;;;;;17.10;11.63;;;8.00;99.90;;;;;;6161167;23;20162;-87
2021/10/13 04:01:12;;;;;;;16.98;11.68;;;8.00;99.90;;;;;;6161480;23;20178;-93
2021/10/13 04:03:40;;;;;;;17.77;11.02;;;8.00;99.90;;;;;;6160643;23;20273;-87
2021/10/13 04:06:08;;;;;;;16.65;10.60;;;7.90;99.90;;;;;;6160931;23;20190;-87
2021/10/13 04:08:36;;;;;;;18.15;11.35;;;7.90;99.90;;;;;;6161573;23;20159;-87
2021/10/13 04:11:02;;;;;;;22.02;12.48;;;7.90;99.90;;;;;;6161351;23;20178;-94
2021/10/13 04:13:29;;;;;;;16.40;10.70;;;7.90;99.90;;;;;;6160898;23;20198;-87
2021/10/13 04:15:55;;;;;;;16.63;10.90;;;7.90;99.90;;;;;;6160435;23;20523;-87
2021/10/13 04:18:21;;;;;;;18.30;11.50;;;7.90;99.90;;;;;;6161493;23;20161;-94
2021/10/13 04:20:48;;;;;;;16.70;10.25;;;7.90;99.90;;;;;;6160778;23;20193;-87
2021/10/13 04:23:14;;;;;;;15.88;11.55;;;7.90;99.90;;;;;;6188710;23;20477;-93
2021/10/13 04:25:40;;;;;;;20.50;11.17;;;7.90;99.90;;;;;;6176085;23;20206;-90
2021/10/13 04:28:06;;;;;;;18.25;10.75;;;7.90;99.90;;;;;;6177233;23;20351;-93
2021/10/13 04:30:42;;;;;;;13.43;10.45;;;7.90;99.90;;;;;;6163242;23;20196;-87
2021/10/13 04:33:08;;;;;;;14.88;11.00;;;8.00;99.90;;;;;;6162012;23;20158;-93
2021/10/13 04:35:33;;;;;;;18.10;13.00;;;8.10;99.90;;;;;;6160864;23;20233;-94
2021/10/13 04:38:06;;;;;;;21.27;13.00;;;8.20;99.90;;;;;;6187403;23;20151;-93
2021/10/13 04:40:33;;;;;;;18.33;12.20;;;8.30;99.90;;;;;;6162367;23;20692;-93
2021/10/13 04:43:00;;;;;;;15.13;11.95;;;8.30;99.90;;;;;;6162909;23;20481;-87
2021/10/13 04:45:26;;;;;;;18.10;11.32;;;8.40;99.90;;;;;;6187865;23;20179;-93
2021/10/13 04:47:53;;;;;;;14.00;10.25;;;8.50;99.90;;;;;;6160983;23;20154;-93
2021/10/13 04:50:18;;;;;;;17.17;11.32;;;8.50;99.90;;;;;;6187125;23;20216;-94
2021/10/13 04:52:44;;;;;;;16.90;10.73;;;8.50;99.90;;;;;;6162385;23;20151;-94
2021/10/13 04:55:11;;;;;;;19.47;10.90;;;8.50;99.90;;;;;;6187362;23;20748;-87
2021/10/13 04:57:38;;;;;;;34.83;21.38;;;8.40;99.90;;;;;;6163693;23;20381;-93
2021/10/13 05:00:05;;;;;;;18.77;13.43;;;8.40;99.90;;;;;;6194258;23;20698;-93
2021/10/13 05:02:31;;;;;;;17.98;12.55;;;8.30;99.90;;;;;;6159306;23;20154;-93
2021/10/13 05:04:57;;;;;;;24.00;14.73;;;8.30;99.90;;;;;;6160240;23;20489;-87
2021/10/13 05:07:23;;;;;;;20.70;15.20;;;8.20;99.90;;;;;;6160621;23;20208;-93
2021/10/13 05:09:50;;;;;;;21.60;15.20;;;8.20;99.90;;;;;;6159612;23;20182;-85
2021/10/13 05:12:15;;;;;;;20.55;15.80;;;8.10;99.90;;;;;;6159841;23;20240;-94
2021/10/13 05:14:41;;;;;;;27.90;14.60;;;8.10;99.90;;;;;;6159963;23;20206;-93
2021/10/13 05:17:07;;;;;;;18.23;12.90;;;8.10;99.90;;;;;;6171548;23;20154;-91
2021/10/13 05:19:35;;;;;;;16.10;11.87;;;8.00;99.90;;;;;;6182952;23;20417;-87
2021/10/13 05:22:02;;;;;;;15.27;10.80;;;8.00;99.90;;;;;;6179862;23;20369;-87
2021/10/13 05:24:28;;;;;;;16.70;10.80;;;8.00;99.90;;;;;;6165509;23;20186;-94
2021/10/13 05:26:55;;;;;;;16.93;10.93;;;8.00;99.90;;;;;;6160706;23;20150;-87
2021/10/13 05:29:22;;;;;;;17.80;11.57;;;8.00;99.90;;;;;;6160842;23;20178;-87
2021/10/13 05:31:48;;;;;;;22.00;14.57;;;8.00;99.90;;;;;;6160289;23;20159;-92
2021/10/13 05:34:14;;;;;;;28.13;16.40;;;8.00;99.90;;;;;;6153240;23;20242;-93
2021/10/13 05:36:40;;;;;;;26.92;18.20;;;8.00;99.90;;;;;;6157441;23;20874;-92
2021/10/13 05:39:06;;;;;;;34.20;21.65;;;8.00;99.90;;;;;;6160122;23;20162;-93
2021/10/13 05:41:32;;;;;;;36.17;22.50;;;8.00;99.90;;;;;;6160869;23;20650;-92
2021/10/13 05:44:02;;;;;;;26.95;19.00;;;8.00;99.90;;;;;;6157079;23;20252;-87
2021/10/13 05:46:28;;;;;;;17.73;13.30;;;8.10;99.90;;;;;;6154415;23;20245;-93
2021/10/13 05:48:55;;;;;;;21.00;12.30;;;8.10;99.90;;;;;;6155554;23;20162;-90
2021/10/13 05:51:22;;;;;;;15.82;12.13;;;8.10;99.90;;;;;;6176535;23;20230;-86
2021/10/13 05:53:49;;;;;;;19.45;12.45;;;8.20;99.90;;;;;;6160186;23;20159;-87
2021/10/13 05:56:15;;;;;;;18.40;11.48;;;8.20;99.90;;;;;;6163626;23;20205;-92
2021/10/13 05:58:41;;;;;;;17.15;12.45;;;8.20;99.90;;;;;;6157645;23;20165;-93
2021/10/13 06:01:07;;;;;;;20.90;12.33;;;8.30;99.90;;;;;;6158584;23;20178;-92
2021/10/13 06:03:33;;;;;;;18.17;11.97;;;8.30;99.90;;;;;;6159510;23;20570;-94
2021/10/13 06:05:59;;;;;;;16.07;11.43;;;8.40;99.90;;;;;;6161864;23;20861;-94
2021/10/13 06:08:25;;;;;;;19.97;12.47;;;8.40;99.90;;;;;;6162093;23;20390;-91
2021/10/13 06:10:54;;;;;;;21.10;11.53;;;8.50;99.90;;;;;;6160617;23;20449;-86
2021/10/13 06:13:19;;;;;;;17.25;11.38;;;8.50;99.90;;;;;;6159707;23;20260;-93
2021/10/13 06:15:48;;;;;;;18.10;11.00;;;8.60;99.90;;;;;;6159339;23;20304;-93
2021/10/13 06:18:14;;;;;;;18.45;12.50;;;8.70;99.90;;;;;;6160616;23;20162;-93
2021/10/13 06:20:40;;;;;;;17.60;10.17;;;8.70;99.90;;;;;;6160839;23;20186;-93
2021/10/13 06:23:06;;;;;;;18.73;11.23;;;8.80;99.90;;;;;;6161447;23;20413;-87
2021/10/13 06:25:32;;;;;;;16.90;10.80;;;8.90;99.90;;;;;;6166871;23;20190;-87
2021/10/13 06:27:58;;;;;;;15.65;11.40;;;9.00;99.90;;;;;;6158253;23;20410;-92
2021/10/13 06:30:31;;;;;;;20.55;11.85;;;9.10;99.90;;;;;;6161754;23;20190;-86
2021/10/13 06:32:58;;;;;;;15.70;11.05;;;9.10;99.90;;;;;;6160521;23;20249;-87
2021/10/13 06:35:28;;;;;;;17.83;11.75;;;9.30;99.90;;;;;;6160534;23;20202;-87
2021/10/13 06:37:54;;;;;;;26.48;14.40;;;9.30;99.90;;;;;;6156334;23;20493;-93
2021/10/13 06:40:20;;;;;;;17.92;11.05;;;9.50;99.90;;;;;;6156839;23;20678;-93
2021/10/13 06:42:48;;;;;;;15.63;10.77;;;9.50;99.90;;;;;;6158066;23;20159;-87
2021/10/13 06:45:14;;;;;;;20.55;12.80;;;9.60;99.90;;;;;;6157450;23;20178;-93
2021/10/13 06:47:41;;;;;;;18.90;12.35;;;9.70;99.90;;;;;;6157686;23;20155;-87
2021/10/13 06:50:08;;;;;;;17.38;11.82;;;9.80;99.90;;;;;;6157086;23;20182;-86
2021/10/13 06:52:39;;;;;;;18.40;12.13;;;9.90;99.90;;;;;;6156502;23;20165;-87
2021/10/13 06:55:09;;;;;;;17.45;11.85;;;10.00;99.90;;;;;;6157426;23;20256;-87
2021/10/13 06:57:35;;;;;;;18.75;12.13;;;10.10;99.90;;;;;;6158190;23;20233;-93
2021/10/13 07:00:03;;;;;;;18.10;12.18;;;10.20;99.90;;;;;;6158307;23;20221;-93
2021/10/13 07:02:30;;;;;;;17.25;11.98;;;10.30;99.90;;;;;;6184207;23;20155;-92
2021/10/13 07:04:57;;;;;;;14.98;10.63;;;10.40;99.90;;;;;;6156324;23;20269;-86
2021/10/13 07:07:23;;;;;;;18.90;11.68;;;10.50;99.90;;;;;;6161506;23;20170;-87
2021/10/13 07:09:50;;;;;;;15.83;10.80;;;10.60;99.90;;;;;;6165511;23;20608;-87
2021/10/13 07:12:17;;;;;;;16.48;10.32;;;10.70;99.90;;;;;;6172347;23;20384;-87
2021/10/13 07:14:43;;;;;;;14.38;10.40;;;10.80;99.90;;;;;;6162053;23;20222;-93
2021/10/13 07:17:08;;;;;;;14.93;10.80;;;10.90;99.90;;;;;;6189377;23;20153;-92
2021/10/13 07:19:36;;;;;;;13.93;9.30;;;11.00;99.90;;;;;;6161420;23;20191;-87
2021/10/13 07:22:02;;;;;;;12.18;9.85;;;11.10;99.90;;;;;;6160465;23;20186;-92
2021/10/13 07:24:28;;;;;;;16.92;10.93;;;11.20;99.90;;;;;;6159727;23;20190;-94
2021/10/13 07:26:57;;;;;;;14.38;9.52;;;11.30;99.90;;;;;;6187818;23;20158;-87
2021/10/13 07:29:23;;;;;;;16.58;10.13;;;11.40;99.90;;;;;;6159790;23;20197;-87
2021/10/13 07:31:49;;;;;;;11.68;9.18;;;11.50;99.90;;;;;;6161284;23;20155;-91
2021/10/13 07:34:15;;;;;;;13.45;9.88;;;11.60;99.90;;;;;;6188816;23;20170;-94
2021/10/13 07:36:40;;;;;;;15.07;10.50;;;11.70;99.90;;;;;;6172550;23;20169;-93
2021/10/13 07:39:07;;;;;;;14.60;9.30;;;11.70;99.90;;;;;;6186143;23;20162;-87
2021/10/13 07:41:34;;;;;;;12.95;8.95;;;11.80;99.90;;;;;;6160039;23;20162;-93
2021/10/13 07:44:00;;;;;;;13.48;9.77;;;11.90;99.90;;;;;;6158763;23;20627;-93
2021/10/13 07:46:25;;;;;;;13.30;9.87;;;11.90;99.90;;;;;;6160441;23;20162;-93
2021/10/13 07:48:52;;;;;;;12.90;9.17;;;11.90;99.90;;;;;;6158182;23;20241;-87
2021/10/13 07:51:19;;;;;;;13.15;10.10;;;12.10;99.90;;;;;;6157229;23;20202;-87
2021/10/13 07:53:44;;;;;;;12.68;9.95;;;12.40;99.90;;;;;;6153857;23;20572;-94
2021/10/13 07:56:12;;;;;;;13.60;9.73;;;12.90;99.90;;;;;;6175960;23;20194;-87
2021/10/13 07:58:38;;;;;;;12.10;9.45;;;13.30;99.90;;;;;;6175743;23;20154;-88
2021/10/13 08:01:04;;;;;;;12.85;9.25;;;13.70;99.90;;;;;;6178592;23;20216;-93
2021/10/13 08:03:31;;;;;;;12.07;9.50;;;13.90;99.90;;;;;;6164772;23;20158;-92
2021/10/13 08:05:57;;;;;;;12.40;9.07;;;14.30;99.90;;;;;;6155944;23;20420;-94
2021/10/13 08:08:23;;;;;;;12.30;9.73;;;14.70;99.90;;;;;;6182121;23;20356;-88
2021/10/13 08:10:51;;;;;;;12.70;9.20;;;14.90;99.90;;;;;;6157690;23;20232;-94
2021/10/13 08:13:20;;;;;;;14.20;10.50;;;14.90;99.90;;;;;;6153509;23;20455;-87
2021/10/13 08:15:45;;;;;;;13.30;9.67;;;14.80;99.90;;;;;;6175505;23;20925;-90
2021/10/13 08:18:12;;;;;;;14.10;10.47;;;14.60;99.90;;;;;;6158129;23;20503;-87
2021/10/13 08:20:37;;;;;;;12.07;9.53;;;14.40;99.90;;;;;;6180738;23;20178;-88
2021/10/13 08:23:04;;;;;;;14.70;9.27;;;14.20;99.90;;;;;;6161607;23;20471;-87
2021/10/13 08:25:29;;;;;;;11.50;8.70;;;14.00;99.90;;;;;;6158123;23;20424;-87
2021/10/13 08:27:55;;;;;;;14.97;10.60;;;13.90;99.90;;;;;;6151450;23;20391;-92
2021/10/13 08:30:22;;;;;;;21.97;9.90;;;13.80;99.90;;;;;;6157629;23;20616;-92
2021/10/13 08:32:51;;;;;;;13.37;10.60;;;13.70;99.90;;;;;;6159450;23;20396;-87
2021/10/13 08:35:18;;;;;;;19.23;11.10;;;13.60;99.90;;;;;;6160882;23;20433;-88
2021/10/13 08:37:43;;;;;;;14.03;9.67;;;13.50;99.90;;;;;;6162094;23;20407;-86
2021/10/13 08:40:11;;;;;;;13.20;9.63;;;13.40;99.90;;;;;;6164910;23;20497;-93
2021/10/13 08:42:55;;;;;;;13.23;8.88;;;13.30;99.90;;;;;;6163217;23;20611;-94
2021/10/13 08:45:22;;;;;;;11.95;8.55;;;13.10;99.90;;;;;;6168056;23;20174;-87
2021/10/13 08:47:48;;;;;;;10.25;8.20;;;13.00;99.90;;;;;;6171671;23;20631;-94
2021/10/13 08:50:13;;;;;;;11.90;9.15;;;12.90;99.90;;;;;;6160999;23;20613;-91
2021/10/13 08:52:39;;;;;;;15.60;9.17;;;12.80;99.90;;;;;;6157275;23;20186;-93
2021/10/13 08:55:07;;;;;;;9.70;8.10;;;12.80;99.90;;;;;;6157739;23;20666;-94
2021/10/13 08:57:34;;;;;;;11.10;9.48;;;12.70;99.90;;;;;;6158472;23;20474;-87
2021/10/13 08:59:59;;;;;;;12.30;8.18;;;12.60;99.90;;;;;;6157813;23;20248;-93
2021/10/13 09:02:40;;;;;;;12.97;9.63;;;12.60;99.90;;;;;;6157273;23;20167;-87
2021/10/13 09:05:05;;;;;;;14.15;10.00;;;12.60;99.90;;;;;;6156002;23;20192;-88
2021/10/13 09:07:32;;;;;;;10.20;7.27;;;12.50;99.90;;;;;;6156723;23;20249;-92
2021/10/13 09:09:58;;;;;;;9.65;7.13;;;12.50;99.90;;;;;;6155554;23;20899;-94
2021/10/13 09:12:38;;;;;;;10.60;6.78;;;12.50;99.90;;;;;;6131958;23;20186;-93
2021/10/13 09:15:16;;;;;;;11.88;8.00;;;12.50;99.90;;;;;;6155608;23;20212;-87
2021/10/13 09:17:54;;;;;;;9.48;6.82;;;12.50;99.90;;;;;;6156458;23;20182;-87
2021/10/13 09:20:23;;;;;;;8.93;6.40;;;12.50;99.90;;;;;;6182198;23;20375;-86
2021/10/13 09:23:04;;;;;;;8.88;6.75;;;12.50;99.90;;;;;;6157177;23;20170;-94
2021/10/13 09:25:31;;;;;;;7.65;6.05;;;12.60;99.90;;;;;;6154188;23;20182;-87
2021/10/13 09:27:58;;;;;;;9.77;6.80;;;12.70;99.90;;;;;;6157465;23;20170;-91
2021/10/13 09:30:35;;;;;;;7.95;6.55;;;12.70;99.90;;;;;;6170356;23;20193;-93
2021/10/13 09:33:19;;;;;;;7.45;6.00;;;12.90;99.90;;;;;;6154929;23;20165;-94
2021/10/13 09:35:46;;;;;;;8.85;6.70;;;13.00;99.90;;;;;;6158423;23;20304;-94
2021/10/13 09:38:14;;;;;;;6.10;5.50;;;13.00;99.90;;;;;;6155358;23;20165;-93
2021/10/13 09:40:40;;;;;;;7.93;6.30;;;13.00;99.90;;;;;;6155296;23;20186;-92
2021/10/13 09:43:05;;;;;;;6.33;5.70;;;13.10;99.90;;;;;;6158494;23;20185;-91
2021/10/13 09:45:34;;;;;;;6.53;5.93;;;13.10;99.90;;;;;;6160129;23;20416;-93
2021/10/13 09:48:06;;;;;;;7.13;6.43;;;13.10;99.90;;;;;;6165031;23;20214;-93
2021/10/13 09:50:45;;;;;;;6.40;5.80;;;13.10;99.90;;;;;;6159910;23;20178;-87
2021/10/13 09:53:26;;;;;;;6.18;5.10;;;13.10;99.90;;;;;;6145577;23;20154;-86
2021/10/13 09:55:52;;;;;;;6.30;4.83;;;13.10;99.90;;;;;;6184617;23;20647;-91
2021/10/13 09:58:35;;;;;;;5.03;4.53;;;13.10;99.90;;;;;;6159225;23;20358;-85
2021/10/13 10:01:09;;;;;;;5.57;4.37;;;13.10;99.90;;;;;;6190768;23;20436;-87
2021/10/13 10:03:37;;;;;;;5.10;4.60;;;13.10;99.90;;;;;;6160731;23;20464;-86
2021/10/13 10:06:04;;;;;;;5.03;4.13;;;13.20;99.90;;;;;;6165774;23;20475;-96
2021/10/13 10:08:56;;;;;;;4.40;4.00;;;13.20;99.90;;;;;;6164058;23;20370;-87
2021/10/13 10:11:29;;;;;;;5.77;4.43;;;13.20;99.90;;;;;;6168585;23;20202;-96
2021/10/13 10:13:56;;;;;;;4.10;3.70;;;13.30;99.90;;;;;;6168106;23;20436;-94
2021/10/13 10:16:34;;;;;;;5.33;4.83;;;13.40;99.90;;;;;;6159270;23;20237;-87
2021/10/13 10:19:30;;;;;;;6.50;4.07;;;13.50;99.90;;;;;;6163084;23;20759;-95
2021/10/13 10:21:59;;;;;;;5.23;4.40;;;13.50;99.90;;;;;;6182875;23;20937;-87
2021/10/13 10:24:30;;;;;;;4.20;3.10;;;13.50;99.90;;;;;;6155507;23;20424;-96
2021/10/13 10:27:25;;;;;;;3.05;2.75;;;13.50;99.90;;;;;;6177492;23;20748;-87
2021/10/13 10:30:07;;;;;;;4.60;3.80;;;13.50;99.90;;;;;;6175784;23;20188;-85
2021/10/13 10:32:33;;;;;;;4.77;3.83;;;13.50;99.90;;;;;;6146896;23;20403;-86
2021/10/13 10:35:06;;;;;;;3.83;3.53;;;13.50;99.90;;;;;;6150712;23;20771;-87
2021/10/13 10:37:46;;;;;;;3.40;2.90;;;13.60;99.90;;;;;;6151807;23;21122;-94
2021/10/13 10:40:27;;;;;;;3.53;3.23;;;13.70;99.90;;;;;;6152535;23;20429;-86
2021/10/13 10:43:18;;;;;;;3.50;2.73;;;13.70;99.90;;;;;;6155764;23;20430;-96
2021/10/13 10:45:55;;;;;;;3.50;3.20;;;13.70;99.90;;;;;;6155652;23;20467;-96
2021/10/13 10:48:26;;;;;;;3.37;3.07;;;13.80;99.90;;;;;;6154414;23;20358;-96
2021/10/13 10:50:52;;;;;;;3.57;3.27;;;13.80;99.90;;;;;;6153010;23;20498;-96
2021/10/13 10:53:38;;;;;;;3.50;3.20;;;13.80;99.90;;;;;;6167964;23;20404;-94
2021/10/13 10:56:23;;;;;;;3.73;3.43;;;13.80;99.90;;;;;;6153906;23;20829;-87
2021/10/13 10:59:07;;;;;;;3.57;3.27;;;13.80;99.90;;;;;;6157506;23;20396;-87
2021/10/13 11:01:39;;;;;;;4.67;3.43;;;13.70;99.90;;;;;;6183635;23;20395;-87
2021/10/13 11:04:08;;;;;;;3.60;3.27;;;13.70;99.90;;;;;;6156210;23;20400;-96
2021/10/13 11:06:36;;;;;;;3.43;3.13;;;13.60;99.90;;;;;;6159260;23;20370;-96
2021/10/13 11:09:10;;;;;;;3.77;3.47;;;13.60;99.90;;;;;;6166340;23;20355;-87
2021/10/13 11:11:36;;;;;;;5.17;4.30;;;13.60;99.90;;;;;;6160001;23;20392;-87
2021/10/13 11:14:11;;;;;;;5.60;3.20;;;13.50;99.90;;;;;;6161718;23;20476;-94
2021/10/13 11:16:54;;;;;;;3.43;3.13;;;13.50;99.90;;;;;;6157098;23;20415;-94
2021/10/13 11:19:29;;;;;;;3.00;2.70;;;13.50;99.90;;;;;;6154726;23;20428;-93
2021/10/13 11:22:06;;;;;;;3.50;3.20;;;13.50;99.90;;;;;;6156922;23;20491;-95
2021/10/13 11:24:37;;;;;;;4.13;3.33;;;13.50;99.90;;;;;;6154859;23;20470;-95
2021/10/13 11:27:03;;;;;;;3.40;3.00;;;13.50;99.90;;;;;;6154623;23;20741;-96
2021/10/13 11:29:32;;;;;;;4.07;3.77;;;13.50;99.90;;;;;;6180260;23;20405;-95
2021/10/13 11:32:17;;;;;;;3.60;3.30;;;13.50;99.90;;;;;;6151788;23;20426;-94
2021/10/13 11:34:58;;;;;;;3.60;3.30;;;13.50;99.90;;;;;;6156399;23;20578;-86
2021/10/13 11:37:28;;;;;;;3.43;3.23;;;13.50;99.90;;;;;;6157008;23;20877;-95
2021/10/13 11:39:54;;;;;;;3.50;3.20;;;13.50;99.90;;;;;;6157828;23;20726;-94
2021/10/13 11:42:24;;;;;;;3.63;3.33;;;13.50;99.90;;;;;;6160084;23;20412;-94
2021/10/13 11:44:52;;;;;;;4.07;3.73;;;13.50;99.90;;;;;;6185150;23;20408;-95
2021/10/13 11:47:35;;;;;;;3.53;3.20;;;13.50;99.90;;;;;;6159212;23;20400;-86
2021/10/13 11:50:12;;;;;;;2.73;2.30;;;13.50;99.90;;;;;;6159834;23;20416;-86
2021/10/13 11:52:40;;;;;;;4.20;3.80;;;13.50;99.90;;;;;;6161417;23;20392;-96
2021/10/13 11:55:19;;;;;;;5.00;3.83;;;13.50;99.90;;;;;;6160738;23;20455;-96
2021/10/13 11:58:03;;;;;;;4.13;2.83;;;13.50;99.90;;;;;;6161971;23;20359;-96
2021/10/13 12:00:34;;;;;;;3.93;2.97;;;13.60;99.90;;;;;;6160541;23;20422;-95
2021/10/13 12:03:06;;;;;;;2.53;2.27;;;13.60;99.90;;;;;;6160134;23;20387;-96
2021/10/13 12:05:51;;;;;;;2.83;2.63;;;13.60;99.90;;;;;;6159830;23;20964;-96
2021/10/13 12:08:24;;;;;;;2.20;1.93;;;13.70;99.90;;;;;;6160825;23;20392;-95
2021/10/13 12:10:56;;;;;;;4.00;3.13;;;13.70;99.90;;;;;;6160793;23;20424;-87
2021/10/13 12:13:27;;;;;;;2.60;2.40;;;13.70;99.90;;;;;;6159177;23;20443;-96
2021/10/13 12:16:07;;;;;;;3.53;2.47;;;13.80;99.90;;;;;;6160233;23;20456;-89
2021/10/13 12:18:36;;;;;;;1.70;1.60;;;13.70;99.90;;;;;;6158959;23;20388;-95
2021/10/13 12:21:01;;;;;;;1.90;1.70;;;13.80;99.90;;;;;;6160117;23;20394;-95
2021/10/13 12:23:30;;;;;;;2.20;1.80;;;13.80;99.90;;;;;;6158984;23;20392;-95
2021/10/13 12:25:58;;;;;;;1.60;1.50;;;13.80;99.90;;;;;;6160979;23;20277;-87
2021/10/13 12:28:28;;;;;;;1.97;1.60;;;13.80;99.90;;;;;;6159002;23;20469;-86
2021/10/13 12:31:16;;;;;;;1.80;1.40;;;13.80;99.90;;;;;;6157561;23;20753;-95
2021/10/13 12:33:46;;;;;;;1.87;1.30;;;13.90;99.90;;;;;;6171076;23;20388;-95
2021/10/13 12:36:17;;;;;;;1.30;1.20;;;13.90;99.90;;;;;;6159203;23;20443;-87
2021/10/13 12:38:50;;;;;;;1.40;1.30;;;13.90;99.90;;;;;;6159630;23;20483;-96
2021/10/13 12:41:16;;;;;;;2.00;1.70;;;14.00;99.90;;;;;;6159631;23;20408;-95
2021/10/13 12:43:47;;;;;;;1.43;1.13;;;14.00;99.90;;;;;;6159059;23;20393;-87
2021/10/13 12:46:26;;;;;;;2.40;1.50;;;14.10;99.90;;;;;;6160113;23;20427;-92
2021/10/13 12:48:53;;;;;;;1.30;1.20;;;14.20;99.90;;;;;;6157959;23;20392;-95
2021/10/13 12:51:20;;;;;;;1.70;1.20;;;14.20;99.90;;;;;;6160586;23;20400;-87
2021/10/13 12:53:48;;;;;;;1.43;1.33;;;14.30;99.90;;;;;;6156980;23;20862;-87
2021/10/13 12:56:16;;;;;;;1.73;1.63;;;14.30;99.90;;;;;;6167709;23;20838;-86